sensor_id;sensor_type;location;lat;lon;timestamp;temperature;humidity
20827;DHT22;10574;52.508;13.236;2023-07-22T00:00:15;13.90;99.90
20827;DHT22;10574;52.508;13.236;2023-07-22T00:02:43;14.00;99.90
20827;DHT22;10574;52.508;13.236;2023-07-22T00:05:10;14.00;99.90
20827;DHT22;10574;52.508;13.236;2023-07-22T00:07:38;14.00;99.90
20827;DHT22;10574;52.508;13.236;2023-07-22T00:10:09;14.10;99.90
20827;DHT22;10574;52.508;13.236;2023-07-22T00:12:37;14.10;99.90
20827;DHT22;10574;52.508;13.236;2023-07-22T00:15:05;14.10;99.90
20827;DHT22;10574;52.508;13.236;2023-07-22T00:17:33;14.10;99.90
20827;DHT22;10574;52.508;13.236;2023-07-22T00:20:00;14.10;99.90
20827;DHT22;10574;52.508;13.236;2023-07-22T00:22:30;14.20;99.90
20827;DHT22;10574;52.508;13.236;2023-07-22T00:24:58;14.20;99.90
20827;DHT22;10574;52.508;13.236;2023-07-22T00:27:28;14.10;99.90
20827;DHT22;10574;52.508;13.236;2023-07-22T00:29:56;14.20;99.90
20827;DHT22;10574;52.508;13.236;2023-07-22T00:32:24;14.10;99.90
20827;DHT22;10574;52.508;13.236;2023-07-22T00:34:51;14.10;99.90
20827;DHT22;10574;52.508;13.236;2023-07-22T00:37:19;14.20;99.90
20827;DHT22;10574;52.508;13.236;2023-07-22T00:39:47;14.20;99.90
20827;DHT22;10574;52.508;13.236;2023-07-22T00:42:15;14.20;99.90
20827;DHT22;10574;52.508;13.236;2023-07-22T00:44:43;14.20;99.90
20827;DHT22;10574;52.508;13.236;2023-07-22T00:47:11;14.20;99.90
20827;DHT22;10574;52.508;13.236;2023-07-22T00:49:39;14.20;99.90
20827;DHT22;10574;52.508;13.236;2023-07-22T00:52:06;14.20;99.90
20827;DHT22;10574;52.508;13.236;2023-07-22T00:54:38;14.30;99.90
20827;DHT22;10574;52.508;13.236;2023-07-22T00:57:07;14.30;99.90
20827;DHT22;10574;52.508;13.236;2023-07-22T00:59:36;14.30;99.90
20827;DHT22;10574;52.508;13.236;2023-07-22T01:02:04;14.30;99.90
20827;DHT22;10574;52.508;13.236;2023-07-22T01:04:34;14.40;99.90
20827;DHT22;10574;52.508;13.236;2023-07-22T01:07:03;14.30;99.90
20827;DHT22;10574;52.508;13.236;2023-07-22T01:09:39;14.30;99.90
20827;DHT22;10574;52.508;13.236;2023-07-22T01:12:11;14.30;99.90
20827;DHT22;10574;52.508;13.236;2023-07-22T01:14:43;14.30;99.90
20827;DHT22;10574;52.508;13.236;2023-07-22T01:17:17;14.40;99.90
20827;DHT22;10574;52.508;13.236;2023-07-22T01:19:49;14.40;99.90
20827;DHT22;10574;52.508;13.236;2023-07-22T01:22:17;14.40;99.90
20827;DHT22;10574;52.508;13.236;2023-07-22T01:24:47;14.40;99.90
20827;DHT22;10574;52.508;13.236;2023-07-22T01:27:15;14.40;99.90
20827;DHT22;10574;52.508;13.236;2023-07-22T01:29:46;14.40;99.90
20827;DHT22;10574;52.508;13.236;2023-07-22T01:32:14;14.40;99.90
20827;DHT22;10574;52.508;13.236;2023-07-22T01:34:41;14.40;99.90
20827;DHT22;10574;52.508;13.236;2023-07-22T01:37:09;14.40;99.90
20827;DHT22;10574;52.508;13.236;2023-07-22T01:39:37;14.40;99.90
20827;DHT22;10574;52.508;13.236;2023-07-22T01:42:05;14.30;99.90
20827;DHT22;10574;52.508;13.236;2023-07-22T01:44:32;14.30;99.90
20827;DHT22;10574;52.508;13.236;2023-07-22T01:47:04;14.30;99.90
20827;DHT22;10574;52.508;13.236;2023-07-22T01:49:31;14.30;99.90
20827;DHT22;10574;52.508;13.236;2023-07-22T01:52:00;14.30;99.90
20827;DHT22;10574;52.508;13.236;2023-07-22T01:54:28;14.30;99.90
20827;DHT22;10574;52.508;13.236;2023-07-22T01:56:55;14.20;99.90
20827;DHT22;10574;52.508;13.236;2023-07-22T01:59:23;14.20;99.90
20827;DHT22;10574;52.508;13.236;2023-07-22T02:01:51;14.20;99.90
20827;DHT22;10574;52.508;13.236;2023-07-22T02:04:19;14.10;99.90
20827;DHT22;10574;52.508;13.236;2023-07-22T02:06:46;14.10;99.90
20827;DHT22;10574;52.508;13.236;2023-07-22T02:09:15;14.10;99.90
20827;DHT22;10574;52.508;13.236;2023-07-22T02:11:43;14.00;99.90
20827;DHT22;10574;52.508;13.236;2023-07-22T02:14:11;14.00;99.90
20827;DHT22;10574;52.508;13.236;2023-07-22T02:16:39;13.90;99.90
20827;DHT22;10574;52.508;13.236;2023-07-22T02:19:07;13.90;99.90
20827;DHT22;10574;52.508;13.236;2023-07-22T02:21:34;13.90;99.90
20827;DHT22;10574;52.508;13.236;2023-07-22T02:24:02;13.90;99.90
20827;DHT22;10574;52.508;13.236;2023-07-22T02:26:30;13.90;99.90
20827;DHT22;10574;52.508;13.236;2023-07-22T02:28:57;13.90;99.90
20827;DHT22;10574;52.508;13.236;2023-07-22T02:31:25;13.90;99.90
20827;DHT22;10574;52.508;13.236;2023-07-22T02:33:53;13.80;99.90
20827;DHT22;10574;52.508;13.236;2023-07-22T02:36:20;13.80;99.90
20827;DHT22;10574;52.508;13.236;2023-07-22T02:38:48;13.80;99.90
20827;DHT22;10574;52.508;13.236;2023-07-22T02:41:16;13.80;99.90
20827;DHT22;10574;52.508;13.236;2023-07-22T02:43:43;13.80;99.90
20827;DHT22;10574;52.508;13.236;2023-07-22T02:46:11;13.80;99.90
20827;DHT22;10574;52.508;13.236;2023-07-22T02:48:39;13.80;99.90
20827;DHT22;10574;52.508;13.236;2023-07-22T02:51:08;13.80;99.90
20827;DHT22;10574;52.508;13.236;2023-07-22T02:53:37;13.80;99.90
20827;DHT22;10574;52.508;13.236;2023-07-22T02:56:05;13.70;99.90
20827;DHT22;10574;52.508;13.236;2023-07-22T02:58:37;13.70;99.90
20827;DHT22;10574;52.508;13.236;2023-07-22T03:01:05;13.70;99.90
20827;DHT22;10574;52.508;13.236;2023-07-22T03:03:35;13.70;99.90
20827;DHT22;10574;52.508;13.236;2023-07-22T03:06:03;13.70;99.90
20827;DHT22;10574;52.508;13.236;2023-07-22T03:08:31;13.60;99.90
20827;DHT22;10574;52.508;13.236;2023-07-22T03:10:58;13.60;99.90
20827;DHT22;10574;52.508;13.236;2023-07-22T03:13:27;13.60;99.90
20827;DHT22;10574;52.508;13.236;2023-07-22T03:15:57;13.60;99.90
20827;DHT22;10574;52.508;13.236;2023-07-22T03:18:25;13.60;99.90
20827;DHT22;10574;52.508;13.236;2023-07-22T03:20:52;13.60;99.90
20827;DHT22;10574;52.508;13.236;2023-07-22T03:23:20;13.60;99.90
20827;DHT22;10574;52.508;13.236;2023-07-22T03:25:48;13.60;99.90
20827;DHT22;10574;52.508;13.236;2023-07-22T03:28:16;13.60;99.90
20827;DHT22;10574;52.508;13.236;2023-07-22T03:30:44;13.60;99.90
20827;DHT22;10574;52.508;13.236;2023-07-22T03:33:11;13.50;99.90
20827;DHT22;10574;52.508;13.236;2023-07-22T03:35:39;13.50;99.90
20827;DHT22;10574;52.508;13.236;2023-07-22T03:38:07;13.50;99.90
20827;DHT22;10574;52.508;13.236;2023-07-22T03:40:35;13.60;99.90
20827;DHT22;10574;52.508;13.236;2023-07-22T03:43:04;13.60;99.90
20827;DHT22;10574;52.508;13.236;2023-07-22T03:45:32;13.60;99.90
20827;DHT22;10574;52.508;13.236;2023-07-22T03:48:00;13.60;99.90
20827;DHT22;10574;52.508;13.236;2023-07-22T03:50:28;13.60;99.90
20827;DHT22;10574;52.508;13.236;2023-07-22T03:52:56;13.50;99.90
20827;DHT22;10574;52.508;13.236;2023-07-22T03:55:23;13.50;99.90
20827;DHT22;10574;52.508;13.236;2023-07-22T03:57:51;13.50;99.90
20827;DHT22;10574;52.508;13.236;2023-07-22T04:00:19;13.50;99.90
20827;DHT22;10574;52.508;13.236;2023-07-22T04:02:48;13.60;99.90
20827;DHT22;10574;52.508;13.236;2023-07-22T04:05:16;13.60;99.90
20827;DHT22;10574;52.508;13.236;2023-07-22T04:07:45;13.60;99.90
20827;DHT22;10574;52.508;13.236;2023-07-22T04:10:12;13.60;99.90
20827;DHT22;10574;52.508;13.236;2023-07-22T04:12:40;13.60;99.90
20827;DHT22;10574;52.508;13.236;2023-07-22T04:15:08;13.60;99.90
20827;DHT22;10574;52.508;13.236;2023-07-22T04:17:36;13.60;99.90
20827;DHT22;10574;52.508;13.236;2023-07-22T04:20:04;13.60;99.90
20827;DHT22;10574;52.508;13.236;2023-07-22T04:22:33;13.70;99.90
20827;DHT22;10574;52.508;13.236;2023-07-22T04:25:01;13.70;99.90
20827;DHT22;10574;52.508;13.236;2023-07-22T04:27:28;13.80;99.90
20827;DHT22;10574;52.508;13.236;2023-07-22T04:29:56;13.80;99.90
20827;DHT22;10574;52.508;13.236;2023-07-22T04:32:25;13.90;99.90
20827;DHT22;10574;52.508;13.236;2023-07-22T04:34:52;14.00;99.90
20827;DHT22;10574;52.508;13.236;2023-07-22T04:37:21;14.10;99.90
20827;DHT22;10574;52.508;13.236;2023-07-22T04:39:49;14.10;99.90
20827;DHT22;10574;52.508;13.236;2023-07-22T04:42:17;14.20;99.90
20827;DHT22;10574;52.508;13.236;2023-07-22T04:44:44;14.30;99.90
20827;DHT22;10574;52.508;13.236;2023-07-22T04:47:12;14.30;99.90
20827;DHT22;10574;52.508;13.236;2023-07-22T04:49:40;14.30;99.90
20827;DHT22;10574;52.508;13.236;2023-07-22T04:52:08;14.40;99.90
20827;DHT22;10574;52.508;13.236;2023-07-22T04:54:35;14.50;99.90
20827;DHT22;10574;52.508;13.236;2023-07-22T04:57:03;15.10;99.90
20827;DHT22;10574;52.508;13.236;2023-07-22T04:59:31;15.90;99.90
20827;DHT22;10574;52.508;13.236;2023-07-22T05:01:59;17.00;99.90
20827;DHT22;10574;52.508;13.236;2023-07-22T05:04:27;17.80;99.90
20827;DHT22;10574;52.508;13.236;2023-07-22T05:06:54;18.20;99.90
20827;DHT22;10574;52.508;13.236;2023-07-22T05:09:22;18.60;99.90
20827;DHT22;10574;52.508;13.236;2023-07-22T05:11:50;19.00;99.90
20827;DHT22;10574;52.508;13.236;2023-07-22T05:14:17;19.40;99.90
20827;DHT22;10574;52.508;13.236;2023-07-22T05:16:45;20.00;99.90
20827;DHT22;10574;52.508;13.236;2023-07-22T05:19:13;20.30;99.90
20827;DHT22;10574;52.508;13.236;2023-07-22T05:21:41;20.40;99.90
20827;DHT22;10574;52.508;13.236;2023-07-22T05:24:08;20.40;99.90
20827;DHT22;10574;52.508;13.236;2023-07-22T05:26:36;20.30;99.90
20827;DHT22;10574;52.508;13.236;2023-07-22T05:29:04;19.70;99.90
20827;DHT22;10574;52.508;13.236;2023-07-22T05:31:32;19.40;99.90
20827;DHT22;10574;52.508;13.236;2023-07-22T05:34:02;19.20;99.90
20827;DHT22;10574;52.508;13.236;2023-07-22T05:36:30;18.80;99.90
20827;DHT22;10574;52.508;13.236;2023-07-22T05:38:58;18.70;99.90
20827;DHT22;10574;52.508;13.236;2023-07-22T05:41:27;18.70;99.90
20827;DHT22;10574;52.508;13.236;2023-07-22T05:43:55;18.30;99.90
20827;DHT22;10574;52.508;13.236;2023-07-22T05:46:23;18.10;99.90
20827;DHT22;10574;52.508;13.236;2023-07-22T05:48:51;17.80;99.90
20827;DHT22;10574;52.508;13.236;2023-07-22T05:51:18;17.80;99.90
20827;DHT22;10574;52.508;13.236;2023-07-22T05:53:48;17.70;99.90
20827;DHT22;10574;52.508;13.236;2023-07-22T05:56:16;17.80;99.90
20827;DHT22;10574;52.508;13.236;2023-07-22T05:58:44;18.00;99.90
20827;DHT22;10574;52.508;13.236;2023-07-22T06:01:11;18.20;99.90
20827;DHT22;10574;52.508;13.236;2023-07-22T06:03:41;18.30;99.90
20827;DHT22;10574;52.508;13.236;2023-07-22T06:06:10;18.30;99.90
20827;DHT22;10574;52.508;13.236;2023-07-22T06:08:38;18.50;99.90
20827;DHT22;10574;52.508;13.236;2023-07-22T06:11:06;18.60;99.90
20827;DHT22;10574;52.508;13.236;2023-07-22T06:13:33;18.70;99.90
20827;DHT22;10574;52.508;13.236;2023-07-22T06:16:01;18.50;99.90
20827;DHT22;10574;52.508;13.236;2023-07-22T06:18:29;18.50;99.90
20827;DHT22;10574;52.508;13.236;2023-07-22T06:20:57;18.40;99.90
20827;DHT22;10574;52.508;13.236;2023-07-22T06:23:24;18.30;99.90
20827;DHT22;10574;52.508;13.236;2023-07-22T06:25:52;18.10;99.90
20827;DHT22;10574;52.508;13.236;2023-07-22T06:28:19;18.10;99.90
20827;DHT22;10574;52.508;13.236;2023-07-22T06:30:47;18.00;99.90
20827;DHT22;10574;52.508;13.236;2023-07-22T06:33:16;18.20;99.90
20827;DHT22;10574;52.508;13.236;2023-07-22T06:35:44;18.30;99.90
20827;DHT22;10574;52.508;13.236;2023-07-22T06:38:11;18.40;99.90
20827;DHT22;10574;52.508;13.236;2023-07-22T06:40:40;18.20;99.90
20827;DHT22;10574;52.508;13.236;2023-07-22T06:43:07;18.20;99.90
20827;DHT22;10574;52.508;13.236;2023-07-22T06:45:35;18.30;99.90
20827;DHT22;10574;52.508;13.236;2023-07-22T06:48:03;18.40;99.90
20827;DHT22;10574;52.508;13.236;2023-07-22T06:50:31;18.70;99.90
20827;DHT22;10574;52.508;13.236;2023-07-22T06:52:58;18.90;99.90
20827;DHT22;10574;52.508;13.236;2023-07-22T06:55:26;19.40;99.90
20827;DHT22;10574;52.508;13.236;2023-07-22T06:57:55;19.20;99.90
20827;DHT22;10574;52.508;13.236;2023-07-22T07:00:23;19.30;99.90
20827;DHT22;10574;52.508;13.236;2023-07-22T07:02:51;19.40;99.90
20827;DHT22;10574;52.508;13.236;2023-07-22T07:05:19;19.40;99.90
20827;DHT22;10574;52.508;13.236;2023-07-22T07:07:49;19.40;99.90
20827;DHT22;10574;52.508;13.236;2023-07-22T07:10:17;19.40;99.90
20827;DHT22;10574;52.508;13.236;2023-07-22T07:12:44;19.30;99.90
20827;DHT22;10574;52.508;13.236;2023-07-22T07:15:12;19.00;99.90
20827;DHT22;10574;52.508;13.236;2023-07-22T07:17:39;18.90;99.90
20827;DHT22;10574;52.508;13.236;2023-07-22T07:20:08;19.20;99.90
20827;DHT22;10574;52.508;13.236;2023-07-22T07:22:36;19.20;99.90
20827;DHT22;10574;52.508;13.236;2023-07-22T07:25:05;18.90;99.90
20827;DHT22;10574;52.508;13.236;2023-07-22T07:27:33;18.80;99.90
20827;DHT22;10574;52.508;13.236;2023-07-22T07:30:01;18.70;99.90
20827;DHT22;10574;52.508;13.236;2023-07-22T07:32:28;18.60;99.90
20827;DHT22;10574;52.508;13.236;2023-07-22T07:34:56;18.70;99.90
20827;DHT22;10574;52.508;13.236;2023-07-22T07:37:24;18.70;99.90
20827;DHT22;10574;52.508;13.236;2023-07-22T07:39:51;19.00;99.90
20827;DHT22;10574;52.508;13.236;2023-07-22T07:42:19;18.90;99.90
20827;DHT22;10574;52.508;13.236;2023-07-22T07:44:47;18.70;99.90
20827;DHT22;10574;52.508;13.236;2023-07-22T07:47:14;18.80;99.90
20827;DHT22;10574;52.508;13.236;2023-07-22T07:49:42;19.20;99.90
20827;DHT22;10574;52.508;13.236;2023-07-22T07:52:11;19.00;99.90
20827;DHT22;10574;52.508;13.236;2023-07-22T07:54:39;18.80;99.90
20827;DHT22;10574;52.508;13.236;2023-07-22T07:57:07;18.70;99.90
20827;DHT22;10574;52.508;13.236;2023-07-22T07:59:35;18.50;99.90
20827;DHT22;10574;52.508;13.236;2023-07-22T08:02:02;18.40;99.90
20827;DHT22;10574;52.508;13.236;2023-07-22T08:04:32;18.50;99.90
20827;DHT22;10574;52.508;13.236;2023-07-22T08:06:59;18.40;99.90
20827;DHT22;10574;52.508;13.236;2023-07-22T08:09:34;18.50;99.90
20827;DHT22;10574;52.508;13.236;2023-07-22T08:12:03;18.60;99.90
20827;DHT22;10574;52.508;13.236;2023-07-22T08:14:31;18.90;99.90
20827;DHT22;10574;52.508;13.236;2023-07-22T08:16:59;18.90;99.90
20827;DHT22;10574;52.508;13.236;2023-07-22T08:19:27;19.00;99.90
20827;DHT22;10574;52.508;13.236;2023-07-22T08:21:54;19.10;99.90
20827;DHT22;10574;52.508;13.236;2023-07-22T08:24:22;18.90;99.90
20827;DHT22;10574;52.508;13.236;2023-07-22T08:26:50;18.90;99.90
20827;DHT22;10574;52.508;13.236;2023-07-22T08:29:18;18.90;99.90
20827;DHT22;10574;52.508;13.236;2023-07-22T08:31:45;19.00;99.90
20827;DHT22;10574;52.508;13.236;2023-07-22T08:34:13;18.90;99.90
20827;DHT22;10574;52.508;13.236;2023-07-22T08:36:41;18.70;99.90
20827;DHT22;10574;52.508;13.236;2023-07-22T08:39:10;18.40;99.90
20827;DHT22;10574;52.508;13.236;2023-07-22T08:41:38;18.20;99.90
20827;DHT22;10574;52.508;13.236;2023-07-22T08:44:10;18.30;99.90
20827;DHT22;10574;52.508;13.236;2023-07-22T08:46:40;18.40;99.90
20827;DHT22;10574;52.508;13.236;2023-07-22T08:49:09;18.30;99.90
20827;DHT22;10574;52.508;13.236;2023-07-22T08:51:40;18.50;99.90
20827;DHT22;10574;52.508;13.236;2023-07-22T08:54:08;18.70;99.90
20827;DHT22;10574;52.508;13.236;2023-07-22T08:56:36;18.70;99.90
20827;DHT22;10574;52.508;13.236;2023-07-22T08:59:06;18.70;99.90
20827;DHT22;10574;52.508;13.236;2023-07-22T09:01:34;18.90;99.90
20827;DHT22;10574;52.508;13.236;2023-07-22T09:04:04;19.00;99.90
20827;DHT22;10574;52.508;13.236;2023-07-22T09:06:33;19.40;99.90
20827;DHT22;10574;52.508;13.236;2023-07-22T09:09:01;19.80;99.90
20827;DHT22;10574;52.508;13.236;2023-07-22T09:11:30;20.10;99.90
20827;DHT22;10574;52.508;13.236;2023-07-22T09:13:58;20.30;99.90
20827;DHT22;10574;52.508;13.236;2023-07-22T09:16:29;20.40;99.90
20827;DHT22;10574;52.508;13.236;2023-07-22T09:18:59;19.90;99.90
20827;DHT22;10574;52.508;13.236;2023-07-22T09:21:27;19.50;99.90
20827;DHT22;10574;52.508;13.236;2023-07-22T09:23:55;19.30;99.90
20827;DHT22;10574;52.508;13.236;2023-07-22T09:26:22;19.40;99.90
20827;DHT22;10574;52.508;13.236;2023-07-22T09:28:52;19.50;99.90
20827;DHT22;10574;52.508;13.236;2023-07-22T09:31:22;19.50;99.90
20827;DHT22;10574;52.508;13.236;2023-07-22T09:33:51;19.50;99.90
20827;DHT22;10574;52.508;13.236;2023-07-22T09:36:23;19.90;99.90
20827;DHT22;10574;52.508;13.236;2023-07-22T09:39:01;19.90;99.90
20827;DHT22;10574;52.508;13.236;2023-07-22T09:41:30;20.00;99.90
20827;DHT22;10574;52.508;13.236;2023-07-22T09:44:00;20.20;99.90
20827;DHT22;10574;52.508;13.236;2023-07-22T09:46:36;20.30;99.90
20827;DHT22;10574;52.508;13.236;2023-07-22T09:49:02;20.30;99.90
20827;DHT22;10574;52.508;13.236;2023-07-22T09:51:39;20.20;99.90
20827;DHT22;10574;52.508;13.236;2023-07-22T09:54:07;20.20;99.90
20827;DHT22;10574;52.508;13.236;2023-07-22T09:56:49;20.10;99.90
20827;DHT22;10574;52.508;13.236;2023-07-22T09:59:20;20.20;99.90
20827;DHT22;10574;52.508;13.236;2023-07-22T10:01:50;20.10;99.90
20827;DHT22;10574;52.508;13.236;2023-07-22T10:04:20;20.00;99.90
20827;DHT22;10574;52.508;13.236;2023-07-22T10:06:49;20.10;99.90
20827;DHT22;10574;52.508;13.236;2023-07-22T10:09:18;19.90;99.90
20827;DHT22;10574;52.508;13.236;2023-07-22T10:11:47;19.90;99.90
20827;DHT22;10574;52.508;13.236;2023-07-22T10:14:16;20.00;99.90
20827;DHT22;10574;52.508;13.236;2023-07-22T10:16:45;20.20;99.90
20827;DHT22;10574;52.508;13.236;2023-07-22T10:19:13;20.70;99.90
20827;DHT22;10574;52.508;13.236;2023-07-22T10:21:41;21.10;99.90
20827;DHT22;10574;52.508;13.236;2023-07-22T10:24:10;20.90;99.90
20827;DHT22;10574;52.508;13.236;2023-07-22T10:26:40;20.70;99.90
20827;DHT22;10574;52.508;13.236;2023-07-22T10:29:09;20.40;99.90
20827;DHT22;10574;52.508;13.236;2023-07-22T10:31:37;20.40;99.90
20827;DHT22;10574;52.508;13.236;2023-07-22T10:34:05;20.50;99.90
20827;DHT22;10574;52.508;13.236;2023-07-22T10:36:33;20.60;99.90
20827;DHT22;10574;52.508;13.236;2023-07-22T10:39:02;20.70;99.90
20827;DHT22;10574;52.508;13.236;2023-07-22T10:41:37;20.70;99.90
20827;DHT22;10574;52.508;13.236;2023-07-22T10:44:06;20.60;99.90
20827;DHT22;10574;52.508;13.236;2023-07-22T10:46:38;20.70;99.90
20827;DHT22;10574;52.508;13.236;2023-07-22T10:49:10;21.00;99.90
20827;DHT22;10574;52.508;13.236;2023-07-22T10:51:38;21.20;99.90
20827;DHT22;10574;52.508;13.236;2023-07-22T10:54:13;21.00;99.90
20827;DHT22;10574;52.508;13.236;2023-07-22T10:56:44;20.90;99.90
20827;DHT22;10574;52.508;13.236;2023-07-22T10:59:12;20.80;99.90
20827;DHT22;10574;52.508;13.236;2023-07-22T11:01:41;20.60;99.90
20827;DHT22;10574;52.508;13.236;2023-07-22T11:04:16;20.50;99.90
20827;DHT22;10574;52.508;13.236;2023-07-22T11:09:35;20.20;99.90
20827;DHT22;10574;52.508;13.236;2023-07-22T11:14:46;20.30;99.90
20827;DHT22;10574;52.508;13.236;2023-07-22T11:17:26;20.50;99.90
20827;DHT22;10574;52.508;13.236;2023-07-22T11:19:50;20.70;99.90
20827;DHT22;10574;52.508;13.236;2023-07-22T11:22:21;21.20;99.90
20827;DHT22;10574;52.508;13.236;2023-07-22T11:24:52;21.40;99.90
20827;DHT22;10574;52.508;13.236;2023-07-22T11:27:20;21.60;99.90
20827;DHT22;10574;52.508;13.236;2023-07-22T11:29:49;21.70;99.90
20827;DHT22;10574;52.508;13.236;2023-07-22T11:32:20;21.80;99.90
20827;DHT22;10574;52.508;13.236;2023-07-22T11:34:54;21.90;99.90
20827;DHT22;10574;52.508;13.236;2023-07-22T11:37:23;21.90;99.90
20827;DHT22;10574;52.508;13.236;2023-07-22T11:39:51;22.00;99.90
20827;DHT22;10574;52.508;13.236;2023-07-22T11:42:18;22.20;99.90
20827;DHT22;10574;52.508;13.236;2023-07-22T11:44:46;22.30;99.90
20827;DHT22;10574;52.508;13.236;2023-07-22T11:47:14;22.40;99.70
20827;DHT22;10574;52.508;13.236;2023-07-22T11:49:47;22.50;99.90
20827;DHT22;10574;52.508;13.236;2023-07-22T11:52:17;22.70;97.70
20827;DHT22;10574;52.508;13.236;2023-07-22T11:54:46;22.60;97.50
20827;DHT22;10574;52.508;13.236;2023-07-22T11:57:18;22.70;98.30
20827;DHT22;10574;52.508;13.236;2023-07-22T11:59:48;22.70;98.90
20827;DHT22;10574;52.508;13.236;2023-07-22T12:02:18;22.60;96.40
20827;DHT22;10574;52.508;13.236;2023-07-22T12:05:01;22.40;97.00
20827;DHT22;10574;52.508;13.236;2023-07-22T12:07:30;22.20;98.70
20827;DHT22;10574;52.508;13.236;2023-07-22T12:10:03;22.20;99.90
20827;DHT22;10574;52.508;13.236;2023-07-22T12:12:38;22.50;99.90
20827;DHT22;10574;52.508;13.236;2023-07-22T12:15:12;22.90;96.80
20827;DHT22;10574;52.508;13.236;2023-07-22T12:17:55;22.90;96.50
20827;DHT22;10574;52.508;13.236;2023-07-22T12:22:55;22.90;98.10
20827;DHT22;10574;52.508;13.236;2023-07-22T12:25:24;22.90;99.40
20827;DHT22;10574;52.508;13.236;2023-07-22T12:27:52;22.80;99.40
20827;DHT22;10574;52.508;13.236;2023-07-22T12:30:20;22.70;97.50
20827;DHT22;10574;52.508;13.236;2023-07-22T12:32:48;22.40;97.30
20827;DHT22;10574;52.508;13.236;2023-07-22T12:35:16;22.20;98.40
20827;DHT22;10574;52.508;13.236;2023-07-22T12:37:44;22.00;99.40
20827;DHT22;10574;52.508;13.236;2023-07-22T12:40:14;22.00;99.70
20827;DHT22;10574;52.508;13.236;2023-07-22T12:42:42;22.10;99.90
20827;DHT22;10574;52.508;13.236;2023-07-22T12:45:12;22.40;99.90
20827;DHT22;10574;52.508;13.236;2023-07-22T12:47:41;22.50;98.90
20827;DHT22;10574;52.508;13.236;2023-07-22T12:50:09;22.40;99.90
20827;DHT22;10574;52.508;13.236;2023-07-22T12:52:40;22.30;98.00
20827;DHT22;10574;52.508;13.236;2023-07-22T12:55:08;22.10;98.30
20827;DHT22;10574;52.508;13.236;2023-07-22T12:57:35;21.90;97.40
20827;DHT22;10574;52.508;13.236;2023-07-22T13:00:03;21.90;98.40
20827;DHT22;10574;52.508;13.236;2023-07-22T13:02:33;22.10;98.90
20827;DHT22;10574;52.508;13.236;2023-07-22T13:05:02;22.20;98.70
20827;DHT22;10574;52.508;13.236;2023-07-22T13:07:30;22.40;97.00
20827;DHT22;10574;52.508;13.236;2023-07-22T13:09:58;22.70;99.80
20827;DHT22;10574;52.508;13.236;2023-07-22T13:12:27;22.90;98.40
20827;DHT22;10574;52.508;13.236;2023-07-22T13:14:55;22.90;97.70
20827;DHT22;10574;52.508;13.236;2023-07-22T13:17:23;22.80;95.80
20827;DHT22;10574;52.508;13.236;2023-07-22T13:19:50;22.70;98.40
20827;DHT22;10574;52.508;13.236;2023-07-22T13:22:18;22.60;96.10
20827;DHT22;10574;52.508;13.236;2023-07-22T13:24:46;22.40;96.10
20827;DHT22;10574;52.508;13.236;2023-07-22T13:27:14;22.40;96.60
20827;DHT22;10574;52.508;13.236;2023-07-22T13:29:41;22.50;97.20
20827;DHT22;10574;52.508;13.236;2023-07-22T13:32:09;22.70;96.10
20827;DHT22;10574;52.508;13.236;2023-07-22T13:34:37;22.90;97.50
20827;DHT22;10574;52.508;13.236;2023-07-22T13:37:05;23.10;95.90
20827;DHT22;10574;52.508;13.236;2023-07-22T13:39:33;23.00;96.80
20827;DHT22;10574;52.508;13.236;2023-07-22T13:42:00;22.90;97.20
20827;DHT22;10574;52.508;13.236;2023-07-22T13:44:28;22.70;96.60
20827;DHT22;10574;52.508;13.236;2023-07-22T13:46:56;22.70;95.80
20827;DHT22;10574;52.508;13.236;2023-07-22T13:49:23;22.80;97.30
20827;DHT22;10574;52.508;13.236;2023-07-22T13:51:52;23.10;96.80
20827;DHT22;10574;52.508;13.236;2023-07-22T13:54:20;23.20;92.70
20827;DHT22;10574;52.508;13.236;2023-07-22T13:56:47;23.00;92.80
20827;DHT22;10574;52.508;13.236;2023-07-22T13:59:15;22.40;92.60
20827;DHT22;10574;52.508;13.236;2023-07-22T14:01:43;22.10;96.20
20827;DHT22;10574;52.508;13.236;2023-07-22T14:04:10;22.00;96.40
20827;DHT22;10574;52.508;13.236;2023-07-22T14:06:38;22.00;95.70
20827;DHT22;10574;52.508;13.236;2023-07-22T14:09:06;21.60;98.10
20827;DHT22;10574;52.508;13.236;2023-07-22T14:11:33;21.50;99.60
20827;DHT22;10574;52.508;13.236;2023-07-22T14:14:01;21.70;99.90
20827;DHT22;10574;52.508;13.236;2023-07-22T14:16:29;21.80;99.90
20827;DHT22;10574;52.508;13.236;2023-07-22T14:18:58;22.00;99.90
20827;DHT22;10574;52.508;13.236;2023-07-22T14:21:26;22.20;99.90
20827;DHT22;10574;52.508;13.236;2023-07-22T14:23:53;22.30;97.70
20827;DHT22;10574;52.508;13.236;2023-07-22T14:26:21;22.20;97.80
20827;DHT22;10574;52.508;13.236;2023-07-22T14:28:49;22.20;99.20
20827;DHT22;10574;52.508;13.236;2023-07-22T14:31:17;22.30;97.80
20827;DHT22;10574;52.508;13.236;2023-07-22T14:33:45;22.40;97.80
20827;DHT22;10574;52.508;13.236;2023-07-22T14:36:12;22.50;98.40
20827;DHT22;10574;52.508;13.236;2023-07-22T14:38:40;22.50;98.20
20827;DHT22;10574;52.508;13.236;2023-07-22T14:41:08;22.50;99.90
20827;DHT22;10574;52.508;13.236;2023-07-22T14:43:37;22.50;99.80
20827;DHT22;10574;52.508;13.236;2023-07-22T14:46:04;22.50;99.30
20827;DHT22;10574;52.508;13.236;2023-07-22T14:48:32;22.30;98.60
20827;DHT22;10574;52.508;13.236;2023-07-22T14:51:00;22.30;99.80
20827;DHT22;10574;52.508;13.236;2023-07-22T14:53:27;22.20;99.60
20827;DHT22;10574;52.508;13.236;2023-07-22T14:55:55;22.10;99.90
20827;DHT22;10574;52.508;13.236;2023-07-22T14:58:24;22.10;99.90
20827;DHT22;10574;52.508;13.236;2023-07-22T15:00:52;22.10;99.40
20827;DHT22;10574;52.508;13.236;2023-07-22T15:03:20;22.10;99.90
20827;DHT22;10574;52.508;13.236;2023-07-22T15:05:48;22.20;99.90
20827;DHT22;10574;52.508;13.236;2023-07-22T15:08:15;22.10;99.90
20827;DHT22;10574;52.508;13.236;2023-07-22T15:10:43;22.10;99.90
20827;DHT22;10574;52.508;13.236;2023-07-22T15:13:10;22.00;99.90
20827;DHT22;10574;52.508;13.236;2023-07-22T15:15:38;21.90;99.90
20827;DHT22;10574;52.508;13.236;2023-07-22T15:18:06;21.80;99.90
20827;DHT22;10574;52.508;13.236;2023-07-22T15:20:34;21.80;99.90
20827;DHT22;10574;52.508;13.236;2023-07-22T15:23:03;21.60;99.90
20827;DHT22;10574;52.508;13.236;2023-07-22T15:25:31;21.50;99.90
20827;DHT22;10574;52.508;13.236;2023-07-22T15:27:59;21.50;99.90
20827;DHT22;10574;52.508;13.236;2023-07-22T15:30:27;21.60;99.90